Time;durP1;ratioP1;P1;durP2;ratioP2;P2;SDS_P1;SDS_P2;PMS_P1;PMS_P2;Temp;Humidity;BMP_temperature;BMP_pressure;BME280_temperature;BME280_humidity;BME280_pressure;Samples;Min_cycle;Max_cycle;Signal;HPM_P1;HPM_P2
2023/06/26 00:01:31;;;;;;;5.80;4.40;;;;;;;21.81;90.40;100244.38;5080935;28;20032;-68
2023/06/26 00:03:57;;;;;;;5.47;3.80;;;;;;;21.77;90.51;100243.94;5067821;28;20020;-68
2023/06/26 00:06:25;;;;;;;5.15;3.80;;;;;;;21.72;90.11;100241.00;5076857;28;20097;-68
2023/06/26 00:08:54;;;;;;;5.22;4.07;;;;;;;21.71;90.45;100250.25;5084563;28;20533;-68
2023/06/26 00:11:21;;;;;;;6.18;4.30;;;;;;;21.68;90.40;100249.81;5063814;28;20534;-68
2023/06/26 00:13:46;;;;;;;7.15;3.53;;;;;;;21.54;90.59;100226.28;5068433;28;20489;-68
2023/06/26 00:16:12;;;;;;;5.68;4.15;;;;;;;21.59;91.06;100242.84;5077944;28;20020;-68
2023/06/26 00:18:37;;;;;;;5.05;3.78;;;;;;;21.56;91.01;100238.66;5071657;28;20028;-67
2023/06/26 00:21:03;;;;;;;5.30;3.97;;;;;;;21.54;91.26;100243.47;5082433;28;20508;-67
2023/06/26 00:23:30;;;;;;;7.95;4.40;;;;;;;21.50;91.20;100231.28;5079409;28;20060;-67
2023/06/26 00:25:56;;;;;;;5.50;4.18;;;;;;;21.49;91.52;100239.69;5083897;28;20407;-68
2023/06/26 00:28:21;;;;;;;7.32;4.68;;;;;;;21.46;91.66;100242.81;5087189;28;20035;-67
2023/06/26 00:30:47;;;;;;;7.40;4.30;;;;;;;21.44;92.10;100248.50;5080425;28;20472;-68
2023/06/26 00:33:12;;;;;;;6.22;4.05;;;;;;;21.30;92.09;100219.50;5079883;28;20028;-68
2023/06/26 00:35:37;;;;;;;4.75;3.97;;;;;;;21.26;92.50;100220.97;5071736;28;20023;-68
2023/06/26 00:38:03;;;;;;;5.10;4.15;;;;;;;21.34;92.81;100242.59;5068807;28;20024;-68
2023/06/26 00:40:28;;;;;;;7.10;4.63;;;;;;;21.33;93.12;100240.06;5063776;28;20475;-68
2023/06/26 00:42:54;;;;;;;5.95;4.07;;;;;;;21.32;93.13;100238.38;5076639;28;20047;-68
2023/06/26 00:45:19;;;;;;;6.25;4.38;;;;;;;21.31;93.01;100239.44;5083239;28;20300;-68
2023/06/26 00:47:45;;;;;;;5.82;4.07;;;;;;;21.26;93.16;100236.47;5088181;28;20024;-68
2023/06/26 00:50:11;;;;;;;6.43;4.28;;;;;;;21.23;93.76;100236.88;5081662;28;20154;-68
2023/06/26 00:52:37;;;;;;;7.50;4.20;;;;;;;21.21;94.15;100242.53;5077380;28;20036;-68
2023/06/26 00:55:03;;;;;;;6.93;4.50;;;;;;;21.18;94.72;100233.94;5079246;28;20449;-68
2023/06/26 00:57:30;;;;;;;7.28;4.28;;;;;;;21.17;95.16;100248.59;5088877;28;20047;-68
2023/06/26 00:59:55;;;;;;;10.20;3.92;;;;;;;21.06;95.43;100221.94;5078575;28;20108;-68
2023/06/26 01:02:21;;;;;;;6.18;4.20;;;;;;;21.10;95.72;100231.38;5086582;28;20099;-68
2023/06/26 01:04:50;;;;;;;8.20;3.97;;;;;;;21.10;95.86;100239.56;5082725;28;20061;-68
2023/06/26 01:07:18;;;;;;;6.25;4.50;;;;;;;21.06;95.94;100233.69;5055613;28;20038;-68
2023/06/26 01:09:47;;;;;;;9.45;4.43;;;;;;;21.00;95.99;100223.59;5056355;28;20097;-67
2023/06/26 01:12:13;;;;;;;7.18;4.88;;;;;;;20.98;96.14;100222.09;5077726;28;20151;-68
2023/06/26 01:14:39;;;;;;;7.97;4.10;;;;;;;20.97;95.88;100225.88;5079198;28;20123;-69
2023/06/26 01:17:05;;;;;;;5.10;3.53;;;;;;;20.99;95.65;100221.06;5061191;28;20308;-67
2023/06/26 01:19:33;;;;;;;10.00;3.90;;;;;;;20.95;95.37;100217.91;5081796;28;20131;-68
2023/06/26 01:22:16;;;;;;;7.35;3.55;;;;;;;20.95;95.27;100222.50;5070409;28;20024;-68
2023/06/26 01:25:01;;;;;;;7.38;3.85;;;;;;;20.89;96.08;100217.84;5058780;28;20054;-67
2023/06/26 01:27:29;;;;;;;10.25;4.03;;;;;;;20.88;96.04;100219.72;5086487;28;20027;-68
2023/06/26 01:29:55;;;;;;;6.97;4.15;;;;;;;20.86;96.09;100216.34;5088295;28;20020;-68
2023/06/26 01:32:22;;;;;;;8.68;4.40;;;;;;;20.83;96.12;100210.47;5088152;28;20028;-68
2023/06/26 01:34:48;;;;;;;7.57;4.35;;;;;;;20.79;96.58;100218.22;5068094;28;20121;-68
2023/06/26 01:37:14;;;;;;;7.72;4.40;;;;;;;20.78;97.00;100213.81;5064407;28;20503;-68
2023/06/26 01:39:39;;;;;;;7.45;4.05;;;;;;;20.75;97.04;100207.91;5075805;28;20056;-68
2023/06/26 01:42:05;;;;;;;5.00;4.07;;;;;;;20.78;97.15;100213.81;5087652;28;20081;-68
2023/06/26 01:44:36;;;;;;;4.75;4.25;;;;;;;20.71;96.88;100187.56;5055945;28;20464;-68
2023/06/26 01:47:04;;;;;;;8.55;4.22;;;;;;;20.80;96.73;100205.44;5055628;28;20039;-67
2023/06/26 01:49:35;;;;;;;6.68;4.63;;;;;;;20.78;96.72;100205.63;5075973;28;20122;-68
2023/06/26 01:52:08;;;;;;;5.88;4.00;;;;;;;20.78;97.17;100208.38;5086886;28;20031;-68
2023/06/26 01:54:42;;;;;;;8.27;4.50;;;;;;;20.74;97.66;100201.66;5078351;28;20032;-67
2023/06/26 01:57:09;;;;;;;8.10;4.65;;;;;;;20.67;98.04;100189.03;5067107;28;20035;-68
2023/06/26 01:59:37;;;;;;;7.43;4.20;;;;;;;20.69;97.63;100195.94;5073665;28;20028;-68
2023/06/26 02:02:02;;;;;;;4.32;3.90;;;;;;;20.74;97.96;100201.66;5067130;28;20032;-68
2023/06/26 02:04:28;;;;;;;4.70;4.20;;;;;;;20.76;97.88;100201.44;5066837;28;20016;-69
2023/06/26 02:06:54;;;;;;;5.90;3.70;;;;;;;20.78;97.83;100204.78;5079321;28;20450;-68
2023/06/26 02:09:20;;;;;;;6.30;4.07;;;;;;;20.78;97.74;100202.06;5079358;28;20757;-68
2023/06/26 02:11:45;;;;;;;5.93;4.28;;;;;;;20.73;97.75;100191.75;5077504;28;20036;-68
2023/06/26 02:14:12;;;;;;;7.82;4.20;;;;;;;20.77;97.78;100198.50;5080177;28;20120;-68
2023/06/26 02:16:37;;;;;;;7.60;3.95;;;;;;;20.78;97.88;100192.00;5084931;28;20054;-68
2023/06/26 02:19:03;;;;;;;7.30;4.05;;;;;;;20.76;97.84;100194.09;5080533;28;20107;-68
2023/06/26 02:21:28;;;;;;;4.43;3.72;;;;;;;20.76;97.79;100196.00;5074951;28;20044;-68
2023/06/26 02:23:54;;;;;;;4.95;4.18;;;;;;;20.72;97.72;100194.69;5084904;28;20067;-68
2023/06/26 02:26:20;;;;;;;7.95;4.50;;;;;;;20.69;98.28;100186.91;5082639;28;20032;-68
2023/06/26 02:28:46;;;;;;;8.18;3.90;;;;;;;20.68;98.99;100198.88;5072106;28;20472;-68
2023/06/26 02:31:11;;;;;;;7.50;4.13;;;;;;;20.68;99.33;100191.53;5082000;28;20043;-69
2023/06/26 02:33:36;;;;;;;8.63;4.50;;;;;;;20.68;99.12;100196.16;5083419;28;20479;-68
2023/06/26 02:36:02;;;;;;;9.90;4.13;;;;;;;20.57;99.30;100183.94;5071337;28;20054;-68
2023/06/26 02:38:27;;;;;;;10.20;4.35;;;;;;;20.54;99.89;100175.31;5075843;28;20472;-69
2023/06/26 02:40:53;;;;;;;5.80;4.20;;;;;;;20.69;99.72;100203.25;5066014;28;20078;-69
2023/06/26 02:43:18;;;;;;;5.32;4.07;;;;;;;20.69;100.00;100206.84;5075008;28;20135;-68
2023/06/26 02:45:44;;;;;;;6.57;3.78;;;;;;;20.70;100.00;100202.25;5075139;28;20059;-68
2023/06/26 02:48:09;;;;;;;8.73;4.43;;;;;;;20.71;99.93;100207.50;5061304;28;20040;-69
2023/06/26 02:50:34;;;;;;;7.30;3.83;;;;;;;20.71;100.00;100203.91;5069348;28;20024;-69
2023/06/26 02:53:00;;;;;;;6.72;4.20;;;;;;;20.70;100.00;100210.41;5069337;28;20028;-68
2023/06/26 02:55:25;;;;;;;7.15;4.75;;;;;;;20.70;100.00;100210.41;5066411;28;20025;-68
2023/06/26 02:57:51;;;;;;;5.05;3.75;;;;;;;20.57;100.00;100189.38;5075804;28;20032;-69
2023/06/26 03:00:17;;;;;;;7.47;4.25;;;;;;;20.71;100.00;100212.09;5085698;28;20020;-68
2023/06/26 03:02:42;;;;;;;6.70;4.25;;;;;;;20.65;100.00;100210.16;5048666;28;20399;-68
2023/06/26 03:05:08;;;;;;;10.60;3.92;;;;;;;20.70;100.00;100219.41;5077476;28;20101;-68
2023/06/26 03:07:33;;;;;;;8.13;4.88;;;;;;;20.59;100.00;100197.34;5069641;28;20479;-68
2023/06/26 03:10:00;;;;;;;8.52;4.47;;;;;;;20.70;100.00;100216.69;5055526;28;20064;-69
2023/06/26 03:12:25;;;;;;;8.82;4.68;;;;;;;20.62;100.00;100196.94;5055623;28;20064;-69
2023/06/26 03:14:51;;;;;;;9.05;5.03;;;;;;;20.69;100.00;100212.28;5071879;28;20463;-68
2023/06/26 03:17:16;;;;;;;6.72;4.78;;;;;;;20.62;100.00;100199.66;5078417;28;20111;-68
2023/06/26 03:19:42;;;;;;;9.23;5.18;;;;;;;20.71;100.00;100209.38;5068044;28;20028;-69
2023/06/26 03:22:07;;;;;;;5.88;4.72;;;;;;;20.70;100.00;100205.78;5086514;28;20081;-68
2023/06/26 03:24:33;;;;;;;11.25;5.50;;;;;;;20.69;99.86;100208.72;5084360;28;20114;-69
2023/06/26 03:26:59;;;;;;;8.40;5.40;;;;;;;20.63;99.78;100201.38;5069322;28;20040;-68
2023/06/26 03:29:25;;;;;;;8.25;5.20;;;;;;;20.68;100.00;100212.50;5078872;28;20390;-69
2023/06/26 03:31:50;;;;;;;7.97;4.78;;;;;;;20.66;100.00;100214.59;5074735;28;20024;-68
2023/06/26 03:34:16;;;;;;;6.03;5.20;;;;;;;20.66;100.00;100218.16;5071507;28;20031;-69
2023/06/26 03:36:41;;;;;;;8.50;5.38;;;;;;;20.63;100.00;100210.38;5069234;28;20020;-69
2023/06/26 03:39:07;;;;;;;9.57;5.18;;;;;;;20.63;100.00;100215.00;5068910;28;20051;-68
2023/06/26 03:41:32;;;;;;;9.00;5.32;;;;;;;20.64;100.00;100224.84;5075027;28;20107;-67
2023/06/26 03:44:00;;;;;;;8.07;4.45;;;;;;;20.58;100.00;100215.59;5071821;28;21131;-68
2023/06/26 03:46:25;;;;;;;7.72;5.32;;;;;;;20.59;100.00;100221.88;5078253;28;20035;-68
2023/06/26 03:48:51;;;;;;;9.10;5.20;;;;;;;20.62;100.00;100225.06;5077467;28;20034;-69
2023/06/26 03:51:16;;;;;;;7.80;4.78;;;;;;;20.61;100.00;100227.97;5075798;28;20036;-69
2023/06/26 03:53:41;;;;;;;10.18;5.15;;;;;;;20.60;100.00;100239.94;5072386;28;20086;-69
2023/06/26 03:56:07;;;;;;;5.97;4.80;;;;;;;20.58;100.00;100231.97;5074714;28;20032;-69
2023/06/26 03:58:32;;;;;;;6.38;4.90;;;;;;;20.46;100.00;100210.91;5072440;28;20024;-69
2023/06/26 04:00:58;;;;;;;8.18;5.20;;;;;;;20.49;100.00;100215.94;5076988;28;20052;-69
2023/06/26 04:03:24;;;;;;;9.48;4.72;;;;;;;20.60;100.00;100237.22;5081368;28;20498;-69
2023/06/26 04:05:49;;;;;;;7.32;5.30;;;;;;;20.59;100.00;100227.31;5077797;28;20051;-69
2023/06/26 04:08:15;;;;;;;8.25;5.45;;;;;;;20.63;100.00;100232.19;5079830;28;20039;-69
2023/06/26 04:10:40;;;;;;;5.30;4.75;;;;;;;20.65;100.00;100240.16;5083290;28;20111;-69
2023/06/26 04:13:06;;;;;;;8.93;5.20;;;;;;;20.68;100.00;100242.47;5076198;28;20020;-69
2023/06/26 04:15:31;;;;;;;6.32;4.88;;;;;;;20.67;100.00;100236.19;5074203;28;20763;-69
2023/06/26 04:17:57;;;;;;;8.00;5.35;;;;;;;20.57;100.00;100219.34;5082965;28;20040;-70
2023/06/26 04:20:22;;;;;;;9.98;5.47;;;;;;;20.73;100.00;100242.72;5077322;28;20106;-69
2023/06/26 04:22:47;;;;;;;8.27;5.13;;;;;;;20.73;100.00;100232.66;5077134;28;20030;-68
2023/06/26 04:25:13;;;;;;;7.55;5.72;;;;;;;20.75;100.00;100246.06;5083788;28;20094;-68
2023/06/26 04:27:39;;;;;;;8.90;5.53;;;;;;;20.77;100.00;100233.09;5069569;28;20044;-68
2023/06/26 04:30:05;;;;;;;8.45;5.93;;;;;;;20.80;100.00;100238.97;5073445;28;20031;-68
2023/06/26 04:32:31;;;;;;;9.15;6.55;;;;;;;20.84;100.00;100239.41;5073638;28;20028;-67
2023/06/26 04:34:56;;;;;;;8.40;6.35;;;;;;;20.87;100.00;100242.59;5077635;28;20144;-68
2023/06/26 04:37:22;;;;;;;9.02;6.78;;;;;;;20.87;100.00;100225.38;5073456;28;20031;-69
2023/06/26 04:39:48;;;;;;;14.80;7.07;;;;;;;20.99;100.00;100246.44;5067403;28;20024;-67
2023/06/26 04:42:13;;;;;;;10.25;6.03;;;;;;;21.06;100.00;100238.31;5072744;28;20026;-69
2023/06/26 04:44:40;;;;;;;13.18;6.47;;;;;;;21.04;100.00;100224.88;5087957;28;20024;-69
2023/06/26 04:47:06;;;;;;;8.35;6.65;;;;;;;21.19;99.51;100244.66;5073654;28;20024;-69
2023/06/26 04:49:32;;;;;;;10.30;6.85;;;;;;;21.25;98.93;100238.34;5073384;28;20104;-69
2023/06/26 04:52:00;;;;;;;7.10;5.85;;;;;;;21.32;98.40;100243.84;5080651;28;20029;-69
2023/06/26 04:54:26;;;;;;;9.68;6.05;;;;;;;21.41;98.14;100235.25;5076877;28;20059;-69
2023/06/26 04:56:51;;;;;;;9.88;6.78;;;;;;;21.49;97.95;100240.53;5080738;28;20387;-69
2023/06/26 04:59:17;;;;;;;7.15;5.97;;;;;;;21.56;97.67;100237.81;5081611;28;20034;-69
2023/06/26 05:01:44;;;;;;;11.65;6.53;;;;;;;21.63;96.61;100225.00;5071139;28;20024;-69
2023/06/26 05:04:09;;;;;;;11.80;5.90;;;;;;;21.87;96.13;100244.41;5069789;28;20065;-70
2023/06/26 05:06:35;;;;;;;8.43;5.75;;;;;;;22.00;94.70;100243.56;5084276;28;20447;-69
2023/06/26 05:09:00;;;;;;;8.75;6.22;;;;;;;22.11;93.97;100234.72;5080931;28;20101;-69
2023/06/26 05:11:25;;;;;;;9.77;6.35;;;;;;;22.17;93.45;100242.94;5077288;28;20020;-69
2023/06/26 05:13:51;;;;;;;8.95;5.93;;;;;;;22.22;91.84;100234.09;5076552;28;20020;-69
2023/06/26 05:16:16;;;;;;;10.18;6.38;;;;;;;22.42;90.38;100256.78;5066671;28;20063;-69
2023/06/26 05:18:42;;;;;;;12.30;6.60;;;;;;;22.54;89.89;100257.84;5085754;28;20031;-69
2023/06/26 05:21:08;;;;;;;8.23;7.05;;;;;;;22.62;88.44;100256.75;5067637;28;20066;-69
2023/06/26 05:23:34;;;;;;;8.18;7.07;;;;;;;22.73;87.19;100254.22;5067377;28;20074;-70
2023/06/26 05:26:01;;;;;;;11.35;6.78;;;;;;;22.78;86.27;100243.47;5066984;28;20132;-69
2023/06/26 05:28:30;;;;;;;6.35;5.72;;;;;;;22.89;85.90;100250.19;5071959;28;20036;-69
2023/06/26 05:30:56;;;;;;;8.25;6.57;;;;;;;22.94;85.16;100236.69;5086595;28;20706;-69
2023/06/26 05:33:25;;;;;;;8.85;7.00;;;;;;;23.06;84.78;100252.22;5072061;28;20028;-70
2023/06/26 05:35:54;;;;;;;9.85;6.38;;;;;;;23.15;85.28;100250.91;5067172;28;20028;-69
2023/06/26 05:38:20;;;;;;;8.23;6.70;;;;;;;23.26;86.06;100257.63;5086128;28;20519;-69
2023/06/26 05:40:46;;;;;;;9.68;6.70;;;;;;;23.26;85.53;100235.75;5080644;28;20051;-69
2023/06/26 05:43:11;;;;;;;10.18;6.68;;;;;;;23.46;84.05;100247.41;5070672;28;20079;-69
2023/06/26 05:45:37;;;;;;;7.22;6.53;;;;;;;23.52;79.46;100247.38;5077900;28;20028;-67
2023/06/26 05:48:02;;;;;;;6.10;5.50;;;;;;;23.62;74.95;100242.28;5082490;28;20055;-69
2023/06/26 05:50:28;;;;;;;7.85;5.97;;;;;;;23.79;70.74;100248.88;5080736;28;20085;-69
2023/06/26 05:52:54;;;;;;;5.75;5.25;;;;;;;23.93;69.55;100242.25;5070266;28;20024;-69
2023/06/26 05:55:20;;;;;;;6.43;5.75;;;;;;;24.04;64.96;100247.06;5079713;28;20078;-69
2023/06/26 05:57:46;;;;;;;7.45;5.78;;;;;;;24.22;62.76;100243.53;5087249;28;20028;-67
2023/06/26 06:00:12;;;;;;;6.22;5.63;;;;;;;24.36;61.32;100245.06;5076106;28;20476;-69
2023/06/26 06:02:38;;;;;;;6.28;5.13;;;;;;;24.53;59.83;100248.09;5073656;28;20501;-67
2023/06/26 06:05:05;;;;;;;6.05;5.18;;;;;;;24.65;57.90;100238.91;5072057;28;20086;-67
2023/06/26 06:07:32;;;;;;;6.75;5.80;;;;;;;24.80;55.95;100238.53;5072024;28;20033;-69
2023/06/26 06:09:58;;;;;;;6.70;5.55;;;;;;;24.97;55.28;100240.44;5087020;28;20027;-69
2023/06/26 06:12:23;;;;;;;6.53;5.82;;;;;;;25.09;55.30;100240.50;5068355;28;20824;-68
2023/06/26 06:14:49;;;;;;;6.75;5.55;;;;;;;25.13;55.35;100225.25;5070482;28;20453;-72
2023/06/26 06:17:14;;;;;;;7.32;5.65;;;;;;;25.30;55.00;100240.00;5076833;28;20028;-68
2023/06/26 06:19:39;;;;;;;7.30;5.90;;;;;;;25.48;53.48;100231.75;5069959;28;20023;-68
2023/06/26 06:22:05;;;;;;;7.53;5.93;;;;;;;25.59;52.31;100233.69;5081631;28;20094;-68
2023/06/26 06:24:30;;;;;;;6.05;5.45;;;;;;;25.72;52.08;100244.50;5061610;28;20040;-69
2023/06/26 06:26:56;;;;;;;6.97;5.43;;;;;;;25.81;51.99;100232.09;5045438;28;20024;-69
2023/06/26 06:29:21;;;;;;;5.72;5.15;;;;;;;25.87;52.17;100225.66;5080183;28;20032;-68
2023/06/26 06:31:47;;;;;;;8.60;5.43;;;;;;;26.03;51.61;100228.63;5069861;28;20035;-68
2023/06/26 06:34:13;;;;;;;9.13;6.07;;;;;;;26.18;50.89;100230.91;5083143;28;20053;-68
2023/06/26 06:36:38;;;;;;;6.68;5.63;;;;;;;26.29;50.55;100227.31;5073456;28;20031;-68
2023/06/26 06:39:04;;;;;;;6.80;5.70;;;;;;;26.43;50.40;100223.25;5075272;28;20577;-68
2023/06/26 06:41:29;;;;;;;6.35;5.68;;;;;;;26.49;49.79;100227.78;5047903;28;20024;-69
2023/06/26 06:43:54;;;;;;;7.07;5.78;;;;;;;26.60;49.91;100232.47;5077528;28;20029;-68
2023/06/26 06:46:20;;;;;;;7.15;6.30;;;;;;;26.69;50.17;100232.97;5082238;28;20043;-68
2023/06/26 06:48:46;;;;;;;6.53;5.78;;;;;;;26.72;50.21;100225.03;5078769;28;20059;-69
2023/06/26 06:51:12;;;;;;;6.53;5.88;;;;;;;26.79;50.10;100231.25;5077818;28;20483;-69
2023/06/26 06:53:37;;;;;;;6.15;5.25;;;;;;;26.81;49.90;100236.50;5081772;28;20028;-68
2023/06/26 06:56:03;;;;;;;6.85;5.75;;;;;;;26.83;49.29;100234.38;5075241;28;20043;-69
2023/06/26 06:58:30;;;;;;;6.35;5.57;;;;;;;26.84;49.31;100225.88;5071098;28;20026;-68
2023/06/26 07:00:56;;;;;;;6.72;5.85;;;;;;;26.93;49.11;100238.19;5076042;28;20047;-69
2023/06/26 07:03:21;;;;;;;5.82;5.22;;;;;;;26.99;49.98;100231.72;5075204;28;20023;-68
2023/06/26 07:05:47;;;;;;;7.25;5.50;;;;;;;26.97;49.65;100220.09;5079495;28;20024;-69
2023/06/26 07:08:13;;;;;;;6.53;5.85;;;;;;;27.09;49.47;100231.94;5056383;28;20034;-69
2023/06/26 07:10:38;;;;;;;8.70;5.35;;;;;;;27.11;49.20;100224.25;5071931;28;20027;-69
2023/06/26 07:13:04;;;;;;;10.73;5.93;;;;;;;27.16;48.38;100223.50;5072415;28;20037;-69
2023/06/26 07:15:29;;;;;;;7.28;5.55;;;;;;;27.29;48.47;100229.63;5072676;28;20036;-69
2023/06/26 07:17:55;;;;;;;6.47;5.68;;;;;;;27.41;48.48;100232.31;5083222;28;20020;-68
2023/06/26 07:20:20;;;;;;;9.05;6.38;;;;;;;27.47;48.11;100234.91;5079288;28;20023;-69
2023/06/26 07:22:46;;;;;;;7.53;6.22;;;;;;;27.50;48.32;100233.59;5085530;28;20028;-69
2023/06/26 07:25:12;;;;;;;6.63;5.93;;;;;;;27.55;48.79;100240.03;5080635;28;20079;-69
2023/06/26 07:27:39;;;;;;;6.13;5.53;;;;;;;27.58;48.89;100242.31;5081603;28;20759;-69
2023/06/26 07:30:04;;;;;;;7.75;5.80;;;;;;;27.56;48.97;100229.84;5080676;28;20059;-69
2023/06/26 07:32:30;;;;;;;8.55;6.00;;;;;;;27.58;48.88;100227.69;5070288;28;20115;-69
2023/06/26 07:34:55;;;;;;;9.32;5.70;;;;;;;27.73;48.75;100237.06;5076316;28;20090;-69
2023/06/26 07:37:21;;;;;;;7.47;5.82;;;;;;;27.86;48.47;100239.53;5074476;28;20016;-69
2023/06/26 07:39:48;;;;;;;9.30;6.05;;;;;;;27.90;48.94;100237.97;5080355;28;20600;-69
2023/06/26 07:42:14;;;;;;;9.20;5.75;;;;;;;27.98;48.05;100234.78;5072072;28;20031;-69
2023/06/26 07:44:39;;;;;;;7.70;5.95;;;;;;;28.01;48.39;100237.06;5077664;28;20035;-69
2023/06/26 07:47:05;;;;;;;7.10;6.00;;;;;;;28.05;47.54;100231.88;5085011;28;20024;-69
2023/06/26 07:49:30;;;;;;;6.70;6.10;;;;;;;28.04;47.86;100222.75;5059674;28;20058;-69
2023/06/26 07:51:56;;;;;;;8.32;6.45;;;;;;;28.11;47.39;100226.19;5059345;28;20073;-69
2023/06/26 07:54:21;;;;;;;8.38;6.65;;;;;;;28.17;47.31;100232.63;5073965;28;20020;-69
2023/06/26 07:57:01;;;;;;;6.57;5.72;;;;;;;28.23;46.80;100235.22;5073824;28;20024;-69
2023/06/26 07:59:28;;;;;;;7.07;5.70;;;;;;;28.13;46.88;100209.38;5084240;28;20630;-69
2023/06/26 08:01:55;;;;;;;8.80;6.43;;;;;;;28.24;47.43;100225.84;5077975;28;20047;-69
2023/06/26 08:04:22;;;;;;;6.40;5.80;;;;;;;28.24;47.36;100228.63;5080764;28;20032;-69
2023/06/26 08:06:52;;;;;;;6.97;6.28;;;;;;;28.20;47.33;100221.94;5073731;28;20029;-69
2023/06/26 08:09:19;;;;;;;8.80;6.30;;;;;;;28.27;46.91;100230.88;5064857;28;20082;-69
2023/06/26 08:11:46;;;;;;;7.07;6.35;;;;;;;28.36;46.83;100231.28;5070989;28;20380;-69
2023/06/26 08:14:12;;;;;;;6.75;5.85;;;;;;;28.39;46.89;100226.09;5084994;28;20471;-70
2023/06/26 08:16:41;;;;;;;8.60;5.80;;;;;;;28.39;45.87;100219.75;5082478;28;20039;-70
2023/06/26 08:19:07;;;;;;;6.75;5.75;;;;;;;28.43;45.79;100231.94;5084851;28;20628;-70
2023/06/26 08:21:33;;;;;;;7.93;5.72;;;;;;;28.37;46.00;100217.22;5079805;28;20531;-68
2023/06/26 08:23:58;;;;;;;8.48;5.88;;;;;;;28.52;45.73;100230.47;5081950;28;20123;-68
2023/06/26 08:26:24;;;;;;;6.88;6.18;;;;;;;28.52;45.62;100235.97;5077281;28;20040;-68
2023/06/26 08:28:49;;;;;;;5.82;5.15;;;;;;;28.52;45.70;100235.97;5082168;28;20107;-68
2023/06/26 08:31:16;;;;;;;8.27;6.57;;;;;;;28.62;45.66;100230.59;5048370;28;20028;-68
2023/06/26 08:33:41;;;;;;;6.35;5.65;;;;;;;28.65;45.65;100230.09;5061760;28;20123;-68
2023/06/26 08:36:07;;;;;;;6.47;5.82;;;;;;;28.78;46.12;100234.41;5077034;28;20111;-68
2023/06/26 08:38:32;;;;;;;9.88;6.90;;;;;;;28.84;45.23;100233.41;5073359;28;20024;-67
2023/06/26 08:40:58;;;;;;;7.28;6.22;;;;;;;28.91;45.20;100231.28;5072816;28;20028;-68
2023/06/26 08:43:24;;;;;;;6.55;5.95;;;;;;;28.93;44.49;100229.09;5072655;28;20032;-71
2023/06/26 08:45:53;;;;;;;7.10;6.40;;;;;;;28.91;44.40;100231.28;5079550;28;20123;-68
2023/06/26 08:48:21;;;;;;;6.65;5.97;;;;;;;28.89;44.32;100230.72;5070926;28;20024;-69
2023/06/26 08:50:48;;;;;;;7.70;5.63;;;;;;;28.86;44.74;100225.69;5084378;28;20035;-69
2023/06/26 08:53:25;;;;;;;7.07;6.07;;;;;;;28.88;44.31;100229.06;5073594;28;20065;-69
2023/06/26 08:55:53;;;;;;;6.90;5.82;;;;;;;28.87;44.71;100225.44;5075399;28;20548;-69
2023/06/26 08:58:18;;;;;;;7.85;6.57;;;;;;;28.88;45.02;100220.78;5078742;28;20043;-70
2023/06/26 09:00:44;;;;;;;6.82;5.70;;;;;;;28.89;44.69;100215.00;5083703;28;20032;-70
2023/06/26 09:03:10;;;;;;;7.60;5.78;;;;;;;28.92;44.78;100219.97;5082267;28;20081;-70
2023/06/26 09:05:36;;;;;;;7.03;5.90;;;;;;;28.93;44.07;100226.34;5071837;28;20046;-69
2023/06/26 09:08:02;;;;;;;6.68;6.00;;;;;;;28.97;44.30;100219.22;5081636;28;20046;-69
2023/06/26 09:10:27;;;;;;;8.38;6.25;;;;;;;29.00;44.13;100219.53;5073066;28;20077;-70
2023/06/26 09:12:57;;;;;;;8.88;6.40;;;;;;;29.01;44.26;100223.97;5073532;28;20060;-69
2023/06/26 09:15:22;;;;;;;13.25;6.55;;;;;;;28.98;44.38;100218.13;5088043;28;20531;-70
2023/06/26 09:17:48;;;;;;;8.27;6.57;;;;;;;28.98;43.96;100218.94;5074264;28;20044;-70
2023/06/26 09:20:14;;;;;;;6.40;5.80;;;;;;;28.94;44.34;100211.44;5071375;28;20029;-69
2023/06/26 09:22:42;;;;;;;7.13;6.10;;;;;;;28.99;44.26;100220.66;5077759;28;20032;-70
2023/06/26 09:25:08;;;;;;;6.90;5.78;;;;;;;28.93;44.15;100207.84;5061910;28;20044;-69
2023/06/26 09:27:35;;;;;;;6.90;6.20;;;;;;;29.00;44.17;100213.16;5079694;28;20036;-70
2023/06/26 09:30:02;;;;;;;6.95;6.25;;;;;;;29.01;44.10;100217.63;5072875;28;20029;-70
2023/06/26 09:32:28;;;;;;;8.10;5.65;;;;;;;29.08;44.20;100216.34;5086152;28;20795;-70
2023/06/26 09:34:55;;;;;;;6.55;5.95;;;;;;;29.15;44.07;100213.41;5077001;28;20055;-70
2023/06/26 09:37:22;;;;;;;7.15;6.25;;;;;;;29.21;43.57;100212.38;5081312;28;20032;-70
2023/06/26 09:39:47;;;;;;;8.80;6.40;;;;;;;29.17;43.51;100206.53;5081532;28;20070;-70
2023/06/26 09:42:14;;;;;;;7.35;6.55;;;;;;;29.16;43.17;100207.63;5073310;28;20020;-70
2023/06/26 09:44:46;;;;;;;6.57;5.90;;;;;;;29.17;43.35;100209.28;5081132;28;20051;-70
2023/06/26 09:47:12;;;;;;;8.65;6.47;;;;;;;29.19;43.34;100190.53;5071671;28;20422;-70
2023/06/26 09:49:42;;;;;;;6.80;6.10;;;;;;;29.22;43.37;100197.47;5060025;28;20024;-70
2023/06/26 09:52:08;;;;;;;7.45;6.03;;;;;;;29.24;43.21;100198.03;5078250;28;20032;-70
2023/06/26 09:54:35;;;;;;;6.65;6.05;;;;;;;29.28;43.17;100201.97;5078433;28;20048;-70
2023/06/26 09:57:08;;;;;;;6.63;5.53;;;;;;;29.29;43.17;100182.34;5073083;28;20431;-71
2023/06/26 09:59:34;;;;;;;7.63;6.50;;;;;;;29.34;42.60;100196.22;5074801;28;20031;-70
2023/06/26 10:02:00;;;;;;;6.82;6.13;;;;;;;29.37;42.72;100194.88;5074987;28;20102;-70
2023/06/26 10:04:26;;;;;;;6.78;5.93;;;;;;;29.28;42.25;100168.78;5075764;28;20055;-70
2023/06/26 10:06:55;;;;;;;7.50;6.32;;;;;;;29.35;42.65;100189.59;5072443;28;20169;-70
2023/06/26 10:09:22;;;;;;;7.78;6.30;;;;;;;29.30;42.49;100183.19;5057915;28;20020;-71
2023/06/26 10:12:01;;;;;;;7.82;5.72;;;;;;;29.17;42.21;100178.88;5058262;28;20082;-70
2023/06/26 10:14:31;;;;;;;11.73;6.82;;;;;;;29.13;42.49;100171.38;5079564;28;20047;-70
2023/06/26 10:16:58;;;;;;;6.82;6.13;;;;;;;29.11;42.68;100179.91;5069122;28;20086;-70
2023/06/26 10:19:26;;;;;;;7.45;6.60;;;;;;;29.03;43.03;100165.69;5080772;28;20045;-70
2023/06/26 10:21:53;;;;;;;7.05;6.35;;;;;;;29.13;42.40;100174.97;5076330;28;20039;-70
2023/06/26 10:24:21;;;;;;;7.38;6.22;;;;;;;29.08;42.07;100158.34;5070743;28;20142;-70
2023/06/26 10:26:50;;;;;;;8.20;6.47;;;;;;;29.09;43.22;100171.06;5070980;28;20473;-69
2023/06/26 10:29:19;;;;;;;8.07;7.15;;;;;;;29.05;43.23;100175.41;5072743;28;20028;-71
2023/06/26 10:31:50;;;;;;;8.65;6.80;;;;;;;29.01;43.19;100173.44;5085091;28;20028;-70
2023/06/26 10:34:17;;;;;;;7.63;6.05;;;;;;;29.01;43.41;100167.91;5086022;28;20051;-71
2023/06/26 10:36:43;;;;;;;7.28;6.57;;;;;;;28.96;43.44;100171.44;5081825;28;20364;-71
2023/06/26 10:39:08;;;;;;;7.82;6.60;;;;;;;28.82;43.90;100150.00;5081420;28;20043;-70
2023/06/26 10:41:38;;;;;;;9.32;6.72;;;;;;;28.90;44.59;100160.56;5067503;28;20028;-71
2023/06/26 10:44:20;;;;;;;7.82;6.43;;;;;;;28.89;45.05;100165.28;5069284;28;20087;-70
2023/06/26 10:46:53;;;;;;;6.90;6.20;;;;;;;28.90;44.46;100166.94;5068817;28;20086;-71
2023/06/26 10:49:25;;;;;;;9.40;6.50;;;;;;;28.95;43.90;100161.47;5081762;28;20036;-69
2023/06/26 10:51:51;;;;;;;7.95;6.38;;;;;;;28.93;44.35;100158.16;5070181;28;20550;-69
2023/06/26 10:54:18;;;;;;;7.55;6.35;;;;;;;28.91;43.11;100145.66;5076556;28;20468;-70
2023/06/26 10:56:49;;;;;;;6.72;6.13;;;;;;;29.06;42.91;100157.78;5085103;28;20454;-70
2023/06/26 10:59:20;;;;;;;7.03;6.32;;;;;;;29.05;42.76;100158.03;5057947;28;20119;-69
2023/06/26 11:02:00;;;;;;;7.10;6.40;;;;;;;29.06;42.83;100160.53;5077871;28;20047;-70
2023/06/26 11:04:38;;;;;;;6.82;6.22;;;;;;;29.10;43.53;100155.31;5059609;28;20539;-69
2023/06/26 11:07:23;;;;;;;6.75;6.05;;;;;;;29.12;43.52;100158.66;5070296;28;20032;-69
2023/06/26 11:09:55;;;;;;;9.00;6.80;;;;;;;29.15;43.86;100152.63;5070964;28;20044;-69
2023/06/26 11:12:41;;;;;;;6.85;6.05;;;;;;;29.24;42.37;100160.19;5078599;28;20032;-69
2023/06/26 11:15:14;;;;;;;7.65;6.80;;;;;;;29.14;42.20;100137.97;5070146;28;20028;-69
2023/06/26 11:17:41;;;;;;;6.50;5.78;;;;;;;29.25;41.62;100163.78;5071618;28;20032;-69
2023/06/26 11:20:09;;;;;;;7.88;5.85;;;;;;;29.21;42.22;100159.88;5074860;28;20090;-69
2023/06/26 11:22:36;;;;;;;8.18;6.13;;;;;;;29.17;41.98;100167.03;5072199;28;20029;-69